createdAt,value
2022-09-07T00:00:13.889Z,19.80
2022-09-07T00:02:42.120Z,19.70
2022-09-07T00:05:10.618Z,19.60
2022-09-07T00:07:38.669Z,19.40
2022-09-07T00:10:07.680Z,19.30
2022-09-07T00:12:37.208Z,19.20
2022-09-07T00:22:55.674Z,18.80
2022-09-07T00:25:23.762Z,18.60
2022-09-07T00:27:53.297Z,18.50
2022-09-07T00:30:21.530Z,18.50
2022-09-07T00:32:50.994Z,18.60
2022-09-07T00:35:19.129Z,18.60
2022-09-07T00:37:47.171Z,18.60
2022-09-07T00:40:15.591Z,18.70
2022-09-07T00:42:43.741Z,18.80
2022-09-07T00:45:17.706Z,18.90
2022-09-07T00:47:52.832Z,19.00
2022-09-07T00:50:25.500Z,19.30
2022-09-07T00:53:00.204Z,19.60
2022-09-07T00:55:28.750Z,19.80
2022-09-07T00:57:57.462Z,20.00
2022-09-07T01:00:28.688Z,20.10
2022-09-07T01:02:59.155Z,20.10
2022-09-07T01:05:32.103Z,20.10
2022-09-07T01:08:00.630Z,20.10
2022-09-07T01:10:32.607Z,20.10
2022-09-07T01:13:00.877Z,20.10
2022-09-07T01:15:39.945Z,20.10
2022-09-07T01:18:18.431Z,19.90
2022-09-07T01:21:18.947Z,19.90
2022-09-07T01:24:29.413Z,19.90
2022-09-07T01:27:31.742Z,19.90
2022-09-07T01:30:05.779Z,19.90
2022-09-07T01:32:58.557Z,19.80
2022-09-07T01:35:40.094Z,19.80
2022-09-07T01:38:15.972Z,19.90
2022-09-07T01:40:49.289Z,19.90
2022-09-07T01:43:26.834Z,19.80
2022-09-07T01:45:59.743Z,19.90
2022-09-07T01:48:29.026Z,19.80
2022-09-07T01:51:01.909Z,19.80
2022-09-07T01:53:34.850Z,19.80
2022-09-07T01:56:06.712Z,19.70
2022-09-07T01:58:40.454Z,19.70
2022-09-07T02:01:11.965Z,19.60
2022-09-07T02:03:45.734Z,19.60
2022-09-07T02:06:18.212Z,19.50
2022-09-07T02:08:51.530Z,19.40
2022-09-07T02:11:22.602Z,19.40
2022-09-07T02:13:56.120Z,19.40
2022-09-07T02:16:27.243Z,19.50
2022-09-07T02:18:59.672Z,19.50
2022-09-07T02:21:33.477Z,19.50
2022-09-07T02:24:06.479Z,19.50
2022-09-07T02:26:37.704Z,19.50
2022-09-07T02:29:10.160Z,19.50
2022-09-07T02:31:38.281Z,19.50
2022-09-07T02:34:06.495Z,19.50
2022-09-07T02:36:42.069Z,19.50
2022-09-07T02:39:10.281Z,19.60
2022-09-07T02:41:42.113Z,19.60
2022-09-07T02:44:14.852Z,19.60
2022-09-07T02:47:15.193Z,19.70
2022-09-07T02:50:19.109Z,19.60
2022-09-07T02:53:04.475Z,19.60
2022-09-07T02:55:43.537Z,19.60
2022-09-07T02:58:25.503Z,19.70
2022-09-07T03:01:04.464Z,19.70
2022-09-07T03:03:44.843Z,19.70
2022-09-07T03:06:19.727Z,19.70
2022-09-07T03:08:52.503Z,19.70
2022-09-07T03:11:21.266Z,19.70
2022-09-07T03:13:49.479Z,19.70
2022-09-07T03:16:19.031Z,19.70
2022-09-07T03:18:47.139Z,19.60
2022-09-07T03:21:16.427Z,19.60
2022-09-07T03:23:51.588Z,19.60
2022-09-07T03:26:25.323Z,19.50
2022-09-07T03:28:53.473Z,19.50
2022-09-07T03:31:22.950Z,19.50
2022-09-07T03:33:52.447Z,19.40
2022-09-07T03:36:20.566Z,19.30
2022-09-07T03:38:51.146Z,19.30
2022-09-07T03:41:19.471Z,19.10
2022-09-07T03:43:47.724Z,18.90
2022-09-07T03:46:19.415Z,18.80
2022-09-07T03:48:50.449Z,18.70
2022-09-07T03:51:20.931Z,18.70
2022-09-07T03:53:49.828Z,18.70
2022-09-07T03:56:19.330Z,18.70
2022-09-07T03:58:49.114Z,18.70
2022-09-07T04:01:20.947Z,18.60
2022-09-07T04:03:50.530Z,18.60
2022-09-07T04:06:21.572Z,18.60
2022-09-07T04:08:49.865Z,18.60
2022-09-07T04:11:20.021Z,18.60
2022-09-07T04:13:48.477Z,18.60
2022-09-07T04:16:19.357Z,18.50
2022-09-07T04:18:49.623Z,18.40
2022-09-07T04:21:30.491Z,18.30
2022-09-07T04:23:59.523Z,18.20
2022-09-07T04:26:29.178Z,18.10
2022-09-07T04:28:57.610Z,17.90
2022-09-07T04:31:29.081Z,17.80
2022-09-07T04:33:57.759Z,17.70
2022-09-07T04:36:27.326Z,17.60
2022-09-07T04:38:57.105Z,17.50
2022-09-07T04:41:25.477Z,17.40
2022-09-07T04:43:55.795Z,17.30
2022-09-07T04:46:27.871Z,17.30
2022-09-07T04:48:58.016Z,17.30
2022-09-07T04:51:29.406Z,17.30
2022-09-07T04:53:59.547Z,17.30
2022-09-07T04:56:27.787Z,17.40
2022-09-07T04:58:58.440Z,17.40
2022-09-07T05:01:27.115Z,17.40
2022-09-07T05:03:55.703Z,17.40
2022-09-07T05:06:28.853Z,17.50
2022-09-07T05:08:56.933Z,17.60
2022-09-07T05:11:29.086Z,17.70
2022-09-07T05:13:58.246Z,17.70
2022-09-07T05:16:26.848Z,17.80
2022-09-07T05:18:56.880Z,17.70
2022-09-07T05:21:28.192Z,17.70
2022-09-07T05:24:00.080Z,17.90
2022-09-07T05:26:29.904Z,18.00
2022-09-07T05:31:50.672Z,18.40
2022-09-07T05:34:34.221Z,18.70
2022-09-07T05:37:05.177Z,19.00
2022-09-07T05:39:33.329Z,19.40
2022-09-07T05:42:02.433Z,19.80
2022-09-07T05:44:47.213Z,20.00
2022-09-07T05:47:15.589Z,20.30
2022-09-07T05:49:43.831Z,20.50
2022-09-07T05:52:13.367Z,20.80
2022-09-07T05:54:41.430Z,20.90
2022-09-07T05:57:12.430Z,21.00
2022-09-07T05:59:40.608Z,21.10
2022-09-07T06:02:08.835Z,21.00
2022-09-07T06:04:38.540Z,21.00
2022-09-07T06:07:23.203Z,20.90
2022-09-07T06:12:43.445Z,20.70
2022-09-07T06:15:14.989Z,20.50
2022-09-07T06:17:43.070Z,20.40
2022-09-07T06:20:11.827Z,20.30
2022-09-07T06:22:40.163Z,20.20
2022-09-07T06:25:10.460Z,20.30
2022-09-07T06:27:38.911Z,20.70
2022-09-07T06:30:08.550Z,21.50
2022-09-07T06:32:46.010Z,21.70
2022-09-07T06:35:15.594Z,21.70
2022-09-07T06:37:43.936Z,21.50
2022-09-07T06:40:13.620Z,21.40
2022-09-07T06:42:41.930Z,21.20
2022-09-07T06:45:11.557Z,21.10
2022-09-07T06:47:40.319Z,21.10
2022-09-07T06:50:12.509Z,21.20
2022-09-07T06:55:30.333Z,21.70
2022-09-07T06:57:58.421Z,22.00
2022-09-07T07:00:26.546Z,22.20
2022-09-07T07:02:54.658Z,22.40
2022-09-07T07:05:22.741Z,22.50
2022-09-07T07:07:50.898Z,22.80
2022-09-07T07:10:24.281Z,23.50
2022-09-07T07:12:57.332Z,24.50
2022-09-07T07:15:28.325Z,25.30
2022-09-07T07:18:02.584Z,25.70
2022-09-07T07:20:37.856Z,26.10
2022-09-07T07:23:06.728Z,26.50
2022-09-07T07:25:35.364Z,26.70
2022-09-07T07:30:56.721Z,26.60
2022-09-07T07:33:25.166Z,26.10
2022-09-07T07:35:53.285Z,25.50
2022-09-07T07:44:03.225Z,25.10
2022-09-07T07:46:32.333Z,24.60
2022-09-07T07:49:01.662Z,24.00
2022-09-07T07:52:49.772Z,23.60
2022-09-07T07:54:20.752Z,23.40
2022-09-07T07:56:48.814Z,23.30
2022-09-07T07:59:18.215Z,23.20
2022-09-07T08:01:46.345Z,23.30
2022-09-07T08:04:14.559Z,23.30
2022-09-07T08:06:43.785Z,23.20
2022-09-07T08:09:12.091Z,23.40
2022-09-07T08:11:40.578Z,23.40
2022-09-07T08:14:09.844Z,23.70
2022-09-07T08:16:39.306Z,23.70
2022-09-07T08:19:07.344Z,23.70
2022-09-07T08:21:35.415Z,23.70
2022-09-07T08:24:04.036Z,23.70
2022-09-07T08:26:32.124Z,23.70
2022-09-07T08:29:00.221Z,23.70
2022-09-07T08:31:28.588Z,23.70
2022-09-07T08:33:58.019Z,23.80
2022-09-07T08:36:25.989Z,23.80
2022-09-07T08:38:54.650Z,23.90
2022-09-07T08:42:01.435Z,24.00
2022-09-07T08:44:33.346Z,24.10
2022-09-07T08:47:07.799Z,24.10
2022-09-07T08:49:46.246Z,24.10
2022-09-07T08:52:29.494Z,24.20
2022-09-07T08:55:02.829Z,24.20
2022-09-07T08:57:32.484Z,24.30
2022-09-07T09:00:07.493Z,24.40
2022-09-07T09:02:42.516Z,24.50
2022-09-07T09:05:27.676Z,24.50
2022-09-07T09:08:07.080Z,24.40
2022-09-07T09:10:41.026Z,24.40
2022-09-07T09:13:18.341Z,24.40
2022-09-07T09:15:53.944Z,24.40
2022-09-07T09:18:34.164Z,24.40
2022-09-07T09:21:03.728Z,24.40
2022-09-07T09:23:38.227Z,24.40
2022-09-07T09:26:15.297Z,24.40
2022-09-07T09:28:43.375Z,24.50
2022-09-07T09:31:18.705Z,24.60
2022-09-07T09:34:12.996Z,24.50
2022-09-07T09:36:48.142Z,24.40
2022-09-07T09:39:33.452Z,24.50
2022-09-07T09:42:15.424Z,24.70
2022-09-07T09:44:45.466Z,24.90
2022-09-07T09:47:31.974Z,25.00
2022-09-07T09:50:02.328Z,25.10
2022-09-07T09:52:45.160Z,25.20
2022-09-07T09:55:36.063Z,25.20
2022-09-07T10:01:27.990Z,25.40
2022-09-07T10:03:57.441Z,25.60
2022-09-07T10:06:27.648Z,25.70
2022-09-07T10:09:00.134Z,25.60
2022-09-07T10:12:07.108Z,25.40
2022-09-07T10:14:38.053Z,25.20
2022-09-07T10:17:14.642Z,25.00
2022-09-07T10:19:44.599Z,24.90
2022-09-07T10:22:25.840Z,24.80
2022-09-07T10:24:55.202Z,24.90
2022-09-07T10:27:33.215Z,25.20
2022-09-07T10:30:01.858Z,25.30
2022-09-07T10:32:50.280Z,25.30
2022-09-07T10:35:26.276Z,25.50
2022-09-07T10:38:06.874Z,25.80
2022-09-07T10:40:41.042Z,25.90
2022-09-07T10:43:21.845Z,25.80
2022-09-07T10:46:56.391Z,25.80
2022-09-07T10:49:15.986Z,25.90
2022-09-07T10:51:57.320Z,26.20
2022-09-07T10:54:36.855Z,26.20
2022-09-07T10:57:29.358Z,26.30
2022-09-07T11:00:11.279Z,26.30
2022-09-07T11:06:02.099Z,26.50
2022-09-07T11:14:21.208Z,26.70
2022-09-07T11:16:56.571Z,26.60
2022-09-07T11:19:37.725Z,26.80
2022-09-07T11:22:18.360Z,26.80
2022-09-07T11:27:43.723Z,26.80
2022-09-07T11:30:20.827Z,26.90
2022-09-07T11:33:04.175Z,26.80
2022-09-07T11:35:42.066Z,26.90
2022-09-07T11:38:27.391Z,26.90
2022-09-07T11:41:05.521Z,26.90
2022-09-07T11:43:37.034Z,27.00
2022-09-07T11:46:12.849Z,27.00
2022-09-07T11:48:45.444Z,26.90
2022-09-07T11:51:20.773Z,26.90
2022-09-07T11:53:54.084Z,27.00
2022-09-07T11:56:36.233Z,27.00
2022-09-07T11:59:36.802Z,27.10
2022-09-07T12:02:57.636Z,27.10
2022-09-07T12:05:30.912Z,27.10
2022-09-07T12:08:18.655Z,27.10
2022-09-07T12:11:00.397Z,27.00
2022-09-07T12:13:48.844Z,27.00
2022-09-07T12:16:27.724Z,27.10
2022-09-07T12:19:13.378Z,27.10
2022-09-07T12:21:44.282Z,27.20
2022-09-07T12:24:48.961Z,27.20
2022-09-07T12:27:40.069Z,27.20
2022-09-07T12:30:51.954Z,27.20
2022-09-07T12:33:32.626Z,27.10
2022-09-07T12:36:02.975Z,27.00
2022-09-07T12:39:06.061Z,27.00
2022-09-07T12:41:49.612Z,27.20
2022-09-07T12:44:26.116Z,27.40
2022-09-07T12:46:59.207Z,27.50
2022-09-07T12:50:13.228Z,27.30
2022-09-07T12:52:48.501Z,27.10
2022-09-07T12:58:50.140Z,27.20
2022-09-07T13:01:33.231Z,27.30
2022-09-07T13:04:42.333Z,27.50
2022-09-07T13:07:24.878Z,27.30
2022-09-07T13:09:59.120Z,27.00
2022-09-07T13:15:43.798Z,26.90
2022-09-07T13:18:34.034Z,27.20
2022-09-07T13:21:35.648Z,27.30
2022-09-07T13:24:46.337Z,27.30
2022-09-07T13:27:42.753Z,27.40
2022-09-07T13:30:31.205Z,27.50
2022-09-07T13:33:36.668Z,27.60
2022-09-07T13:36:06.361Z,27.80
2022-09-07T13:38:36.781Z,27.70
2022-09-07T13:41:08.327Z,27.70
2022-09-07T13:43:43.996Z,27.60
2022-09-07T13:46:28.272Z,27.50
2022-09-07T13:49:04.393Z,27.30
2022-09-07T13:51:38.845Z,27.10
2022-09-07T13:54:16.767Z,26.90
2022-09-07T13:56:54.495Z,26.80
2022-09-07T13:59:27.658Z,26.80
2022-09-07T14:01:57.095Z,26.90
2022-09-07T14:04:28.203Z,27.00
2022-09-07T14:07:03.828Z,27.10
2022-09-07T14:09:33.715Z,27.30
2022-09-07T14:12:02.099Z,27.30
2022-09-07T14:14:33.271Z,27.40
2022-09-07T14:17:05.558Z,27.40
2022-09-07T14:19:38.535Z,27.20
2022-09-07T14:22:12.266Z,27.00
2022-09-07T14:24:42.943Z,27.00
2022-09-07T14:27:24.859Z,27.00
2022-09-07T14:29:54.491Z,26.90
2022-09-07T14:32:27.134Z,26.80
2022-09-07T14:34:55.567Z,26.80
2022-09-07T14:37:24.055Z,26.80
2022-09-07T14:39:55.191Z,26.80
2022-09-07T14:42:28.291Z,26.70
2022-09-07T14:45:19.684Z,26.60
2022-09-07T14:47:49.508Z,26.70
2022-09-07T14:50:20.540Z,26.90
2022-09-07T14:55:43.001Z,27.10
2022-09-07T14:58:24.640Z,27.20
2022-09-07T15:03:59.268Z,27.30
2022-09-07T15:09:31.369Z,27.40
2022-09-07T15:12:19.070Z,27.20
2022-09-07T15:14:48.251Z,27.00
2022-09-07T15:20:35.019Z,27.00
2022-09-07T15:23:06.348Z,27.00
2022-09-07T15:25:36.652Z,27.00
2022-09-07T15:28:05.596Z,27.10
2022-09-07T15:30:34.324Z,26.90
2022-09-07T15:33:03.709Z,26.90
2022-09-07T15:35:34.545Z,26.90
2022-09-07T15:38:04.571Z,26.80
2022-09-07T15:40:56.219Z,26.80
2022-09-07T15:43:29.525Z,26.80
2022-09-07T15:46:00.794Z,26.80
2022-09-07T15:48:30.247Z,26.80
2022-09-07T15:54:13.426Z,26.80
2022-09-07T15:56:43.640Z,26.60
2022-09-07T15:59:17.315Z,26.60
2022-09-07T16:01:53.123Z,26.60
2022-09-07T16:04:24.142Z,26.60
2022-09-07T16:06:55.234Z,26.60
2022-09-07T16:09:23.338Z,26.70
2022-09-07T16:11:51.710Z,26.70
2022-09-07T16:14:19.828Z,26.70
2022-09-07T16:19:41.011Z,26.40
2022-09-07T16:22:09.672Z,26.30
2022-09-07T16:24:38.472Z,26.10
2022-09-07T16:27:06.807Z,25.90
2022-09-07T16:29:34.830Z,25.50
2022-09-07T16:34:52.454Z,25.10
2022-09-07T16:37:22.123Z,25.00
2022-09-07T16:39:51.196Z,24.90
2022-09-07T16:42:19.278Z,24.90
2022-09-07T16:44:47.293Z,24.90
2022-09-07T16:47:15.420Z,24.80
2022-09-07T16:49:43.366Z,24.80
2022-09-07T16:52:14.076Z,24.80
2022-09-07T16:54:45.064Z,24.60
2022-09-07T16:57:14.502Z,24.50
2022-09-07T16:59:43.632Z,24.40
2022-09-07T17:02:17.139Z,24.20
2022-09-07T17:04:45.425Z,24.00
2022-09-07T17:07:14.855Z,23.90
2022-09-07T17:09:42.860Z,23.90
2022-09-07T17:12:12.447Z,23.80
2022-09-07T17:14:41.049Z,23.80
2022-09-07T17:17:09.089Z,23.70
2022-09-07T17:19:39.357Z,23.60
2022-09-07T17:22:09.162Z,23.40
2022-09-07T17:24:40.588Z,23.40
2022-09-07T17:27:08.524Z,23.40
2022-09-07T17:29:37.785Z,23.30
2022-09-07T17:34:56.258Z,23.40
2022-09-07T17:37:24.345Z,23.30
2022-09-07T17:39:53.774Z,23.30
2022-09-07T17:42:22.017Z,23.30
2022-09-07T17:44:52.914Z,23.30
2022-09-07T17:47:21.202Z,23.30
2022-09-07T17:49:51.868Z,23.10
2022-09-07T17:52:24.198Z,22.80
2022-09-07T17:54:55.394Z,22.30
2022-09-07T17:57:23.707Z,21.90
2022-09-07T18:02:44.451Z,21.30
2022-09-07T18:05:12.654Z,21.00
2022-09-07T18:07:40.759Z,21.00
2022-09-07T18:10:11.058Z,20.90
2022-09-07T18:12:39.279Z,20.90
2022-09-07T18:15:08.039Z,20.90
2022-09-07T18:17:39.380Z,21.00
2022-09-07T18:20:09.427Z,21.00
2022-09-07T18:22:40.316Z,21.00
2022-09-07T18:25:11.642Z,21.00
2022-09-07T18:27:41.384Z,21.10
2022-09-07T18:30:10.973Z,21.20
2022-09-07T18:32:41.858Z,21.30
2022-09-07T18:35:10.662Z,21.40
2022-09-07T18:37:41.504Z,21.30
2022-09-07T18:40:13.030Z,21.00
2022-09-07T18:42:41.910Z,20.80
2022-09-07T18:45:29.048Z,20.50
2022-09-07T18:47:57.167Z,20.30
2022-09-07T18:50:27.018Z,20.20
2022-09-07T18:53:07.320Z,20.10
2022-09-07T18:55:43.691Z,19.90
2022-09-07T18:58:11.658Z,19.70
2022-09-07T19:00:47.563Z,19.50
2022-09-07T19:03:17.529Z,19.40
2022-09-07T19:05:51.408Z,19.40
2022-09-07T19:08:31.389Z,19.40
2022-09-07T19:11:07.301Z,19.40
2022-09-07T19:13:38.108Z,19.50
2022-09-07T19:16:07.423Z,19.50
2022-09-07T19:18:35.964Z,19.50
2022-09-07T19:21:06.611Z,19.50
2022-09-07T19:23:34.894Z,19.60
2022-09-07T19:26:06.377Z,19.60
2022-09-07T19:28:36.501Z,19.60
2022-09-07T19:31:05.991Z,19.70
2022-09-07T19:33:36.509Z,19.60
2022-09-07T19:36:08.065Z,19.70
2022-09-07T19:38:39.495Z,19.70
2022-09-07T19:41:09.522Z,19.70
2022-09-07T19:43:39.474Z,19.70
2022-09-07T19:46:10.493Z,19.70
2022-09-07T19:48:39.162Z,19.60
2022-09-07T19:51:13.197Z,19.60
2022-09-07T19:53:49.433Z,19.60
2022-09-07T19:56:21.849Z,19.50
2022-09-07T19:58:54.205Z,19.50
2022-09-07T20:01:24.865Z,19.50
2022-09-07T20:03:59.603Z,19.50
2022-09-07T20:06:32.937Z,19.40
2022-09-07T20:09:03.319Z,19.40
2022-09-07T20:11:44.214Z,19.40
2022-09-07T20:14:15.229Z,19.40
2022-09-07T20:16:43.532Z,19.40
2022-09-07T20:19:14.565Z,19.40
2022-09-07T20:21:43.757Z,19.30
2022-09-07T20:24:13.204Z,19.20
2022-09-07T20:26:45.131Z,19.10
2022-09-07T20:29:27.343Z,19.00
2022-09-07T20:32:01.084Z,18.90
2022-09-07T20:34:29.899Z,18.80
2022-09-07T20:37:00.175Z,18.60
2022-09-07T20:39:28.866Z,18.40
2022-09-07T20:41:58.281Z,18.20
2022-09-07T20:44:26.940Z,18.00
2022-09-07T20:46:55.028Z,17.80
2022-09-07T20:49:25.250Z,17.80
2022-09-07T20:51:53.208Z,17.80
2022-09-07T20:54:23.678Z,17.80
2022-09-07T20:56:51.854Z,17.80
2022-09-07T20:59:21.825Z,17.80
2022-09-07T21:01:50.147Z,17.90
2022-09-07T21:04:18.375Z,18.00
2022-09-07T21:06:46.782Z,18.00
2022-09-07T21:09:14.933Z,18.00
2022-09-07T21:11:46.146Z,18.00
2022-09-07T21:14:17.747Z,18.10
2022-09-07T21:16:50.190Z,18.10
2022-09-07T21:19:20.774Z,18.10
2022-09-07T21:21:53.366Z,18.10
2022-09-07T21:24:23.471Z,18.10
2022-09-07T21:26:52.165Z,18.20
2022-09-07T21:29:22.935Z,18.20
2022-09-07T21:31:55.177Z,18.20
2022-09-07T21:34:29.049Z,18.30
2022-09-07T21:36:57.091Z,18.30
2022-09-07T21:39:25.080Z,18.30
2022-09-07T21:41:53.100Z,18.30
2022-09-07T21:44:21.282Z,18.30
2022-09-07T21:46:49.403Z,18.30
2022-09-07T21:49:18.790Z,18.20
2022-09-07T21:51:52.450Z,18.20
2022-09-07T21:54:20.409Z,18.10
2022-09-07T21:56:50.291Z,18.10
2022-09-07T21:59:25.785Z,18.20
2022-09-07T22:01:53.784Z,18.40
2022-09-07T22:04:23.285Z,18.60
2022-09-07T22:06:52.405Z,18.70
2022-09-07T22:09:20.456Z,18.80
2022-09-07T22:11:49.380Z,18.90
2022-09-07T22:14:18.214Z,18.90
2022-09-07T22:16:46.499Z,18.90
2022-09-07T22:19:16.176Z,18.90
2022-09-07T22:21:45.522Z,18.80
2022-09-07T22:24:15.272Z,18.70
2022-09-07T22:26:43.326Z,18.60
2022-09-07T22:29:13.155Z,18.70
2022-09-07T22:31:41.518Z,18.70
2022-09-07T22:34:10.077Z,18.60
2022-09-07T22:36:40.143Z,18.50
2022-09-07T22:39:12.451Z,18.40
2022-09-07T22:41:41.733Z,18.40
2022-09-07T22:44:12.764Z,18.30
2022-09-07T22:46:44.030Z,18.20
2022-09-07T22:49:12.918Z,18.20
2022-09-07T22:51:42.548Z,18.20
2022-09-07T22:54:14.804Z,18.20
2022-09-07T22:56:44.065Z,18.20
2022-09-07T22:59:13.752Z,18.20
2022-09-07T23:01:41.774Z,18.10
2022-09-07T23:04:11.171Z,18.10
2022-09-07T23:06:41.520Z,17.90
2022-09-07T23:09:13.246Z,17.80
2022-09-07T23:11:47.034Z,17.80
2022-09-07T23:14:24.710Z,17.80
2022-09-07T23:16:52.750Z,17.70
2022-09-07T23:19:21.606Z,17.70
2022-09-07T23:21:49.917Z,17.70
2022-09-07T23:24:19.732Z,17.70
2022-09-07T23:26:48.689Z,17.70
2022-09-07T23:29:17.024Z,17.80
2022-09-07T23:31:48.035Z,17.80
2022-09-07T23:34:16.462Z,17.70
2022-09-07T23:36:46.521Z,17.70
2022-09-07T23:39:14.491Z,17.60
2022-09-07T23:41:45.260Z,17.50
2022-09-07T23:44:13.565Z,17.50
2022-09-07T23:46:41.862Z,17.40
2022-09-07T23:49:14.136Z,17.40
2022-09-07T23:51:42.182Z,17.40
2022-09-07T23:54:10.457Z,17.40
2022-09-07T23:56:39.172Z,17.40
2022-09-07T23:59:09.915Z,17.50
